Time;durP1;ratioP1;P1;durP2;ratioP2;P2;SDS_P1;SDS_P2;PMS_P1;PMS_P2;Temp;Humidity;BMP_temperature;BMP_pressure;BME280_temperature;BME280_humidity;BME280_pressure;Samples;Min_cycle;Max_cycle;Signal;HPM_P1;HPM_P2
2024/01/22 00:01:31;;;;;;;1.73;0.60;;;2.10;99.90;;;;;;5054600;28;20977;-79
2024/01/22 00:03:58;;;;;;;1.17;0.50;;;2.10;99.90;;;;;;5073476;28;20450;-79
2024/01/22 00:06:25;;;;;;;1.33;0.90;;;2.10;99.90;;;;;;5077323;28;20452;-79
2024/01/22 00:08:51;;;;;;;0.93;0.60;;;2.10;99.90;;;;;;5076275;28;20454;-79
2024/01/22 00:11:18;;;;;;;0.40;0.30;;;2.10;99.90;;;;;;5076830;28;20486;-78
2024/01/22 00:13:45;;;;;;;0.30;0.30;;;2.10;99.90;;;;;;5075948;28;20440;-79
2024/01/22 00:16:12;;;;;;;3.30;0.87;;;2.10;99.90;;;;;;5066679;28;20454;-79
2024/01/22 00:18:40;;;;;;;1.80;1.20;;;2.10;99.90;;;;;;5062367;28;20454;-79
2024/01/22 00:21:07;;;;;;;1.00;0.70;;;2.00;99.90;;;;;;5058278;28;20449;-79
2024/01/22 00:23:34;;;;;;;1.40;1.40;;;2.10;99.90;;;;;;5056455;28;20823;-79
2024/01/22 00:26:00;;;;;;;0.40;0.40;;;2.10;99.90;;;;;;5055201;28;20453;-79
2024/01/22 00:28:27;;;;;;;1.13;0.70;;;2.20;99.90;;;;;;5057739;28;20450;-79
2024/01/22 00:30:54;;;;;;;1.07;0.60;;;2.10;99.90;;;;;;5060435;28;20484;-79
2024/01/22 00:33:20;;;;;;;4.70;0.83;;;2.10;99.90;;;;;;5057143;28;20449;-79
2024/01/22 00:35:49;;;;;;;0.50;0.50;;;2.10;99.90;;;;;;5055038;28;20453;-79
2024/01/22 00:38:15;;;;;;;0.93;0.50;;;2.10;99.90;;;;;;5055104;28;20966;-79
2024/01/22 00:40:42;;;;;;;2.10;0.53;;;2.00;99.90;;;;;;5055524;28;20446;-79
2024/01/22 00:43:09;;;;;;;0.97;0.60;;;2.00;99.90;;;;;;5054857;28;20450;-79
2024/01/22 00:45:38;;;;;;;1.40;0.40;;;2.00;99.90;;;;;;5054996;28;20449;-79
2024/01/22 00:48:05;;;;;;;2.70;0.40;;;2.00;99.90;;;;;;5054716;28;20448;-79
2024/01/22 00:50:32;;;;;;;0.77;0.57;;;2.00;99.90;;;;;;5054806;28;20481;-79
2024/01/22 00:53:00;;;;;;;0.50;0.50;;;2.00;99.90;;;;;;5054334;28;20951;-79
2024/01/22 00:55:27;;;;;;;0.40;0.30;;;2.00;99.90;;;;;;5054313;28;20453;-79
2024/01/22 00:57:53;;;;;;;0.90;0.50;;;2.00;99.90;;;;;;5054688;28;20463;-79
2024/01/22 01:00:21;;;;;;;0.40;0.40;;;2.00;99.90;;;;;;5054265;28;20462;-79
2024/01/22 01:02:50;;;;;;;0.97;0.93;;;2.00;99.90;;;;;;5054844;28;20449;-80
2024/01/22 01:05:17;;;;;;;0.40;0.40;;;2.00;99.90;;;;;;5054519;28;20485;-79
2024/01/22 01:07:44;;;;;;;0.40;0.40;;;2.10;99.90;;;;;;5054452;28;20476;-79
2024/01/22 01:10:12;;;;;;;0.30;0.30;;;2.10;99.90;;;;;;5054044;28;20472;-79
2024/01/22 01:12:39;;;;;;;0.73;0.70;;;2.20;99.90;;;;;;5054436;28;20884;-79
2024/01/22 01:15:07;;;;;;;3.73;0.90;;;2.10;99.90;;;;;;5054346;28;20449;-79
2024/01/22 01:17:34;;;;;;;0.30;0.30;;;2.10;99.90;;;;;;5054405;28;20445;-79
2024/01/22 01:20:00;;;;;;;0.30;0.30;;;2.10;99.90;;;;;;5054119;28;20466;-79
2024/01/22 01:22:27;;;;;;;0.90;0.90;;;2.10;99.90;;;;;;5054046;28;20772;-78
2024/01/22 01:24:54;;;;;;;0.80;0.40;;;2.10;99.90;;;;;;5054194;28;20453;-78
2024/01/22 01:27:22;;;;;;;0.47;0.47;;;2.00;99.90;;;;;;5053910;28;20504;-78
2024/01/22 01:29:49;;;;;;;0.30;0.30;;;2.00;99.90;;;;;;5054010;28;20469;-79
2024/01/22 01:32:15;;;;;;;1.13;1.13;;;2.00;99.90;;;;;;5053838;28;20485;-79
2024/01/22 01:34:42;;;;;;;1.13;0.40;;;2.00;99.90;;;;;;5054921;28;20520;-78
2024/01/22 01:37:09;;;;;;;0.90;0.57;;;1.90;99.90;;;;;;5056097;28;20441;-79
2024/01/22 01:39:36;;;;;;;0.70;0.70;;;1.90;99.90;;;;;;5057729;28;20465;-79
2024/01/22 01:42:02;;;;;;;0.50;0.50;;;1.90;99.90;;;;;;5057985;28;20448;-79
2024/01/22 01:44:48;;;;;;;0.50;0.30;;;2.70;99.90;;;;;;5058419;28;20442;-79
2024/01/22 01:47:15;;;;;;;1.50;0.63;;;1.90;99.90;;;;;;5058542;28;20499;-79
2024/01/22 01:49:42;;;;;;;0.30;0.30;;;1.90;99.90;;;;;;5057841;28;20473;-79
2024/01/22 01:52:09;;;;;;;3.03;1.13;;;1.80;99.90;;;;;;5062507;28;20488;-79
2024/01/22 01:54:37;;;;;;;0.60;0.50;;;1.90;99.90;;;;;;5067028;28;20450;-78
2024/01/22 01:57:05;;;;;;;2.37;0.60;;;1.90;99.90;;;;;;5056341;28;20450;-78
2024/01/22 01:59:36;;;;;;;0.47;0.30;;;1.90;99.90;;;;;;5056492;28;20462;-78
2024/01/22 02:02:02;;;;;;;0.40;0.40;;;1.80;99.90;;;;;;5056859;28;20433;-78
2024/01/22 02:04:30;;;;;;;0.50;0.50;;;1.80;99.90;;;;;;5056994;28;20506;-78
2024/01/22 02:06:57;;;;;;;0.93;0.87;;;1.90;99.90;;;;;;5056682;28;20442;-79
2024/01/22 02:09:44;;;;;;;0.30;0.30;;;1.90;99.90;;;;;;5056107;28;20486;-78
2024/01/22 02:12:11;;;;;;;0.30;0.30;;;2.00;99.90;;;;;;5056570;28;20466;-78
2024/01/22 02:14:39;;;;;;;0.33;0.30;;;2.00;99.90;;;;;;5056342;28;20962;-78
2024/01/22 02:17:06;;;;;;;0.77;0.77;;;2.20;99.90;;;;;;5056768;28;20442;-78
2024/01/22 02:19:33;;;;;;;0.80;0.50;;;2.30;99.90;;;;;;5056679;28;20564;-78
2024/01/22 02:22:00;;;;;;;1.00;1.00;;;2.40;99.90;;;;;;5056167;28;20453;-79
2024/01/22 02:24:28;;;;;;;0.30;0.30;;;2.50;99.90;;;;;;5056755;28;20442;-78
2024/01/22 02:26:54;;;;;;;0.60;0.60;;;2.50;99.90;;;;;;5056360;28;20450;-78
2024/01/22 02:29:21;;;;;;;0.60;0.60;;;2.50;99.90;;;;;;5056630;28;20477;-79
2024/01/22 02:31:49;;;;;;;0.70;0.70;;;2.50;99.90;;;;;;5056579;28;20485;-78
2024/01/22 02:34:15;;;;;;;1.07;0.93;;;2.40;99.90;;;;;;5056248;28;20441;-78
2024/01/22 02:36:42;;;;;;;0.50;0.50;;;2.40;99.90;;;;;;5056668;28;20437;-78
2024/01/22 02:39:09;;;;;;;0.30;0.30;;;2.40;99.90;;;;;;5056118;28;20962;-79
2024/01/22 02:41:37;;;;;;;7.83;0.87;;;2.40;99.90;;;;;;5056444;28;20445;-79
2024/01/22 02:44:04;;;;;;;0.40;0.40;;;2.40;99.90;;;;;;5056178;28;20507;-79
2024/01/22 02:46:31;;;;;;;0.80;0.53;;;2.40;99.90;;;;;;5056235;28;20453;-79
2024/01/22 02:48:58;;;;;;;0.73;0.73;;;2.50;99.90;;;;;;5055384;28;20470;-79
2024/01/22 02:51:25;;;;;;;1.90;0.80;;;2.50;99.90;;;;;;5055693;28;20477;-79
2024/01/22 02:53:53;;;;;;;0.50;0.40;;;2.50;99.90;;;;;;5056843;28;20433;-79
2024/01/22 02:56:19;;;;;;;0.70;0.60;;;2.60;99.90;;;;;;5056059;28;20450;-79
2024/01/22 02:58:48;;;;;;;1.33;0.40;;;2.60;99.90;;;;;;5055798;28;20466;-79
2024/01/22 03:01:14;;;;;;;0.40;0.40;;;2.60;99.90;;;;;;5055948;28;20445;-79
2024/01/22 03:03:42;;;;;;;0.67;0.60;;;2.60;99.90;;;;;;5055760;28;20962;-79
2024/01/22 03:06:09;;;;;;;0.50;0.50;;;2.60;99.90;;;;;;5056124;28;20460;-79
2024/01/22 03:08:36;;;;;;;0.37;0.37;;;3.50;99.90;;;;;;5055368;28;20846;-79
2024/01/22 03:11:04;;;;;;;1.07;0.97;;;2.70;99.90;;;;;;5055937;28;20487;-79
2024/01/22 03:13:31;;;;;;;1.03;0.50;;;2.70;99.90;;;;;;5055011;28;20449;-79
2024/01/22 03:15:59;;;;;;;0.50;0.40;;;2.70;99.90;;;;;;5055287;28;20450;-79
2024/01/22 03:18:26;;;;;;;0.40;0.40;;;2.70;99.90;;;;;;5055790;28;20863;-79
2024/01/22 03:20:52;;;;;;;0.30;0.30;;;2.70;99.90;;;;;;5055621;28;20438;-79
2024/01/22 03:23:19;;;;;;;0.87;0.40;;;2.70;99.90;;;;;;5056010;28;20461;-79
2024/01/22 03:25:46;;;;;;;0.40;0.40;;;2.70;99.90;;;;;;5055372;28;20444;-79
2024/01/22 03:28:12;;;;;;;0.70;0.50;;;2.70;99.90;;;;;;5055247;28;20449;-79
2024/01/22 03:30:39;;;;;;;1.43;0.50;;;2.70;99.90;;;;;;5055364;28;20811;-79
2024/01/22 03:33:07;;;;;;;0.50;0.43;;;2.80;99.90;;;;;;5055203;28;20487;-79
2024/01/22 03:35:34;;;;;;;4.10;0.77;;;2.80;99.90;;;;;;5055183;28;20446;-79
2024/01/22 03:38:01;;;;;;;0.30;0.30;;;2.80;99.90;;;;;;5055361;28;20437;-79
2024/01/22 03:40:27;;;;;;;0.60;0.60;;;2.80;99.90;;;;;;5054477;28;20966;-79
2024/01/22 03:42:54;;;;;;;0.70;0.47;;;2.80;99.90;;;;;;5055038;28;20442;-79
2024/01/22 03:45:21;;;;;;;0.80;0.50;;;2.90;99.90;;;;;;5055027;28;20449;-79
2024/01/22 03:47:47;;;;;;;0.50;0.50;;;2.90;99.90;;;;;;5055650;28;20452;-79
2024/01/22 03:50:16;;;;;;;0.50;0.50;;;2.80;99.90;;;;;;5055724;28;20462;-80
2024/01/22 03:52:42;;;;;;;0.77;0.60;;;2.90;99.90;;;;;;5055128;28;20477;-80
2024/01/22 03:55:10;;;;;;;0.40;0.40;;;3.00;99.90;;;;;;5056180;28;20441;-79
2024/01/22 03:57:37;;;;;;;0.50;0.37;;;3.00;99.90;;;;;;5055591;28;20449;-80
2024/01/22 04:00:04;;;;;;;0.60;0.60;;;3.00;99.90;;;;;;5055243;28;20473;-79
2024/01/22 04:02:33;;;;;;;0.50;0.40;;;3.10;99.90;;;;;;5055287;28;20473;-79
2024/01/22 04:05:00;;;;;;;1.17;0.50;;;3.10;99.90;;;;;;5055958;28;20454;-79
2024/01/22 04:07:28;;;;;;;0.50;0.50;;;3.10;99.90;;;;;;5055027;28;20468;-79
2024/01/22 04:09:55;;;;;;;0.80;0.80;;;3.10;99.90;;;;;;5054994;28;20485;-79
2024/01/22 04:12:22;;;;;;;0.70;0.30;;;3.10;99.90;;;;;;5069947;28;20503;-79
2024/01/22 04:14:48;;;;;;;1.13;0.60;;;3.10;99.90;;;;;;5056390;28;20446;-78
2024/01/22 04:17:15;;;;;;;1.53;0.60;;;3.20;99.90;;;;;;5054210;28;20465;-79
2024/01/22 04:19:42;;;;;;;0.70;0.40;;;3.20;99.90;;;;;;5054097;28;20476;-79
2024/01/22 04:22:09;;;;;;;0.30;0.30;;;3.30;99.90;;;;;;5054413;28;20431;-79
2024/01/22 04:24:37;;;;;;;0.80;0.63;;;3.30;99.90;;;;;;5053976;28;20448;-79
2024/01/22 04:27:04;;;;;;;2.00;1.43;;;3.40;99.90;;;;;;5054204;28;20446;-79
2024/01/22 04:29:33;;;;;;;0.50;0.40;;;3.40;99.90;;;;;;5054966;28;20540;-79
2024/01/22 04:32:00;;;;;;;0.47;0.40;;;3.40;99.90;;;;;;5053997;28;20481;-79
2024/01/22 04:34:26;;;;;;;0.80;0.57;;;3.50;99.90;;;;;;5055026;28;20441;-79
2024/01/22 04:36:53;;;;;;;1.23;0.50;;;3.50;99.90;;;;;;5053487;28;20452;-79
2024/01/22 04:39:20;;;;;;;0.43;0.40;;;3.50;99.90;;;;;;5054539;28;20469;-79
2024/01/22 04:41:48;;;;;;;13.83;1.23;;;3.40;99.90;;;;;;5053955;28;20464;-79
2024/01/22 04:44:15;;;;;;;2.00;0.73;;;3.50;99.90;;;;;;5054712;28;20442;-79
2024/01/22 04:46:41;;;;;;;1.03;0.73;;;3.50;99.90;;;;;;5053982;28;20895;-79
2024/01/22 04:49:10;;;;;;;0.80;0.80;;;3.50;99.90;;;;;;5054095;28;20465;-79
2024/01/22 04:51:36;;;;;;;0.70;0.60;;;3.50;99.90;;;;;;5054064;28;20454;-79
2024/01/22 04:54:03;;;;;;;1.07;0.77;;;3.50;99.90;;;;;;5054172;28;20458;-79
2024/01/22 04:56:30;;;;;;;0.50;0.50;;;3.50;99.90;;;;;;5053687;28;20446;-79
2024/01/22 04:58:58;;;;;;;0.43;0.43;;;3.60;99.90;;;;;;5053697;28;20454;-79
2024/01/22 05:01:25;;;;;;;1.30;0.73;;;3.60;99.90;;;;;;5053985;28;20449;-79
2024/01/22 05:03:51;;;;;;;0.87;0.50;;;3.60;99.90;;;;;;5054056;28;20438;-79
2024/01/22 05:06:18;;;;;;;2.17;0.80;;;3.60;99.90;;;;;;5053988;28;20525;-79
2024/01/22 05:08:45;;;;;;;0.40;0.30;;;3.60;99.90;;;;;;5053574;28;20473;-79
2024/01/22 05:11:11;;;;;;;0.73;0.50;;;3.60;99.90;;;;;;5054535;28;20643;-79
2024/01/22 05:13:38;;;;;;;0.70;0.50;;;3.60;99.90;;;;;;5058229;28;20475;-79
2024/01/22 05:16:07;;;;;;;0.50;0.50;;;3.70;99.90;;;;;;5057702;28;20446;-79
2024/01/22 05:18:33;;;;;;;1.70;0.40;;;3.70;99.90;;;;;;5057599;28;20469;-79
2024/01/22 05:21:00;;;;;;;0.57;0.57;;;3.60;99.90;;;;;;5057903;28;20818;-79
2024/01/22 05:23:27;;;;;;;0.50;0.50;;;3.60;99.90;;;;;;5057414;28;20454;-79
2024/01/22 05:25:54;;;;;;;0.50;0.50;;;3.60;99.90;;;;;;5057283;28;20452;-79
2024/01/22 05:28:21;;;;;;;0.40;0.33;;;3.60;99.90;;;;;;5057444;28;20442;-79
2024/01/22 05:30:48;;;;;;;0.30;0.30;;;3.60;99.90;;;;;;5057227;28;20434;-79
2024/01/22 05:33:16;;;;;;;1.33;0.60;;;3.60;99.90;;;;;;5057452;28;20481;-79
2024/01/22 05:35:43;;;;;;;4.53;0.80;;;3.70;99.90;;;;;;5057248;28;20946;-79
2024/01/22 05:38:09;;;;;;;0.30;0.30;;;3.70;99.90;;;;;;5057417;28;20457;-79
2024/01/22 05:40:36;;;;;;;0.70;0.70;;;3.70;99.90;;;;;;5057515;28;20441;-79
2024/01/22 05:43:03;;;;;;;1.43;0.53;;;3.70;99.90;;;;;;5057343;28;20810;-79
2024/01/22 05:45:29;;;;;;;0.97;0.83;;;3.70;99.90;;;;;;5057418;28;20441;-79
2024/01/22 05:47:56;;;;;;;1.00;0.90;;;3.70;99.90;;;;;;5056870;28;20489;-79
2024/01/22 05:50:24;;;;;;;0.60;0.50;;;3.80;99.90;;;;;;5058108;28;20466;-80
2024/01/22 05:52:53;;;;;;;1.27;1.17;;;3.70;99.90;;;;;;5058084;28;21032;-80
2024/01/22 05:55:19;;;;;;;0.40;0.40;;;3.80;99.90;;;;;;5057879;28;20492;-80
2024/01/22 05:57:47;;;;;;;1.17;1.00;;;3.80;99.90;;;;;;5058007;28;20446;-79
2024/01/22 06:00:14;;;;;;;1.13;0.40;;;3.80;99.90;;;;;;5057854;28;20475;-80
2024/01/22 06:02:42;;;;;;;1.27;0.93;;;3.90;99.90;;;;;;5057578;28;20513;-80
2024/01/22 06:05:09;;;;;;;2.20;0.67;;;3.80;99.90;;;;;;5057680;28;20453;-80
2024/01/22 06:07:37;;;;;;;0.50;0.50;;;3.80;99.90;;;;;;5057477;28;20512;-79
2024/01/22 06:10:06;;;;;;;0.30;0.20;;;3.80;99.90;;;;;;5058143;28;20549;-80
2024/01/22 06:12:34;;;;;;;0.70;0.70;;;3.80;99.90;;;;;;5057186;28;20474;-79
2024/01/22 06:15:01;;;;;;;2.10;0.90;;;3.80;99.90;;;;;;5057269;28;20461;-79
2024/01/22 06:17:30;;;;;;;0.57;0.53;;;3.80;99.90;;;;;;5057765;28;20450;-80
2024/01/22 06:19:59;;;;;;;0.60;0.47;;;3.90;99.90;;;;;;5057188;28;20844;-79
2024/01/22 06:22:25;;;;;;;0.90;0.73;;;3.90;99.90;;;;;;5056328;28;20507;-78
2024/01/22 06:24:54;;;;;;;0.40;0.40;;;3.90;99.90;;;;;;5056216;28;20442;-78
2024/01/22 06:27:21;;;;;;;3.83;0.60;;;3.90;99.90;;;;;;5056897;28;20449;-81
2024/01/22 06:29:48;;;;;;;1.03;0.60;;;4.00;99.90;;;;;;5060247;28;20531;-78
2024/01/22 06:32:15;;;;;;;0.50;0.50;;;3.90;99.90;;;;;;5063786;28;20485;-78
2024/01/22 06:34:42;;;;;;;0.50;0.40;;;3.90;99.90;;;;;;5056388;28;20620;-78
2024/01/22 06:37:08;;;;;;;2.60;0.67;;;3.90;99.90;;;;;;5065040;28;20943;-78
2024/01/22 06:39:35;;;;;;;0.70;0.40;;;3.90;99.90;;;;;;5062407;28;20462;-78
2024/01/22 06:42:04;;;;;;;0.43;0.43;;;4.00;99.90;;;;;;5055366;28;20852;-78
2024/01/22 06:44:30;;;;;;;0.50;0.40;;;4.00;99.90;;;;;;5055843;28;20469;-78
2024/01/22 06:46:57;;;;;;;0.50;0.50;;;4.00;99.90;;;;;;5055399;28;20442;-78
2024/01/22 06:49:24;;;;;;;0.40;0.40;;;4.00;99.90;;;;;;5055427;28;20469;-78
2024/01/22 06:51:51;;;;;;;1.57;0.57;;;4.00;99.90;;;;;;5055237;28;20438;-77
2024/01/22 06:54:19;;;;;;;0.33;0.33;;;4.00;99.90;;;;;;5055049;28;20915;-78
2024/01/22 06:56:46;;;;;;;0.70;0.70;;;4.10;99.90;;;;;;5058039;28;20486;-78
2024/01/22 06:59:14;;;;;;;0.80;0.40;;;4.40;99.90;;;;;;5057379;28;20501;-78
2024/01/22 07:01:41;;;;;;;1.27;0.73;;;4.20;99.90;;;;;;5055927;28;20536;-79
2024/01/22 07:04:08;;;;;;;1.23;0.97;;;4.20;99.90;;;;;;5058267;28;20453;-78
2024/01/22 07:06:35;;;;;;;3.00;0.93;;;4.20;99.90;;;;;;5058017;28;20474;-78
2024/01/22 07:09:02;;;;;;;0.70;0.50;;;4.20;99.90;;;;;;5055490;28;20562;-79
2024/01/22 07:11:30;;;;;;;3.37;0.60;;;4.30;99.90;;;;;;5055343;28;20437;-79
2024/01/22 07:13:56;;;;;;;0.40;0.40;;;4.30;99.90;;;;;;5055248;28;20517;-78
2024/01/22 07:16:25;;;;;;;0.40;0.40;;;4.40;99.90;;;;;;5055187;28;20808;-78
2024/01/22 07:18:51;;;;;;;0.40;0.37;;;4.40;99.90;;;;;;5055179;28;20464;-78
2024/01/22 07:21:18;;;;;;;3.50;1.03;;;4.40;99.90;;;;;;5054967;28;20449;-78
2024/01/22 07:23:45;;;;;;;1.33;0.50;;;4.30;99.90;;;;;;5055974;28;20442;-78
2024/01/22 07:26:12;;;;;;;0.30;0.30;;;4.50;99.90;;;;;;5055376;28;20454;-78
2024/01/22 07:28:39;;;;;;;2.30;0.80;;;4.50;99.90;;;;;;5054683;28;20819;-79
2024/01/22 07:31:05;;;;;;;0.40;0.30;;;4.50;99.90;;;;;;5054755;28;20448;-78
2024/01/22 07:33:33;;;;;;;0.90;0.80;;;4.50;99.90;;;;;;5054815;28;20489;-78
2024/01/22 07:36:00;;;;;;;0.40;0.40;;;4.60;99.90;;;;;;5054635;28;20441;-78
2024/01/22 07:38:27;;;;;;;0.40;0.30;;;4.60;99.90;;;;;;5055026;28;20457;-78
2024/01/22 07:40:53;;;;;;;0.30;0.30;;;4.70;99.90;;;;;;5054717;28;20796;-79
2024/01/22 07:43:20;;;;;;;0.40;0.30;;;4.80;99.90;;;;;;5054781;28;20427;-79
2024/01/22 07:45:47;;;;;;;0.40;0.30;;;4.90;99.90;;;;;;5054847;28;20799;-79
2024/01/22 07:48:14;;;;;;;0.97;0.37;;;5.10;99.90;;;;;;5055195;28;20816;-78
2024/01/22 07:50:42;;;;;;;0.40;0.33;;;5.20;99.90;;;;;;5055231;28;20494;-79
2024/01/22 07:53:09;;;;;;;0.40;0.30;;;5.40;99.90;;;;;;5054946;28;20492;-79
2024/01/22 07:55:36;;;;;;;0.30;0.30;;;5.50;99.90;;;;;;5054718;28;20446;-78
2024/01/22 07:58:03;;;;;;;0.57;0.43;;;5.70;99.90;;;;;;5055715;28;20450;-79
2024/01/22 08:00:33;;;;;;;0.70;0.50;;;5.70;99.90;;;;;;5055477;28;20462;-79
2024/01/22 08:03:01;;;;;;;0.30;0.30;;;5.90;99.90;;;;;;5055397;28;20448;-79
2024/01/22 08:05:28;;;;;;;0.47;0.30;;;6.00;99.90;;;;;;5055496;28;20446;-78
2024/01/22 08:07:56;;;;;;;1.03;0.40;;;6.10;99.90;;;;;;5054608;28;21029;-79
2024/01/22 08:10:22;;;;;;;0.30;0.30;;;6.20;99.90;;;;;;5055213;28;20544;-79
2024/01/22 08:12:49;;;;;;;0.30;0.30;;;6.20;99.90;;;;;;5055175;28;20481;-79
2024/01/22 08:15:17;;;;;;;0.40;0.40;;;6.20;99.90;;;;;;5055663;28;20536;-79
2024/01/22 08:17:45;;;;;;;0.40;0.33;;;6.30;99.90;;;;;;5054825;28;20507;-79
2024/01/22 08:20:13;;;;;;;0.40;0.30;;;6.30;99.90;;;;;;5054642;28;20469;-78
2024/01/22 08:22:40;;;;;;;0.40;0.30;;;6.30;99.90;;;;;;5055073;28;20452;-79
2024/01/22 08:25:09;;;;;;;0.37;0.37;;;6.30;99.90;;;;;;5054288;28;20483;-78
2024/01/22 08:27:36;;;;;;;0.50;0.40;;;6.30;99.90;;;;;;5054592;28;20804;-79
2024/01/22 08:30:03;;;;;;;0.63;0.30;;;6.30;99.90;;;;;;5054639;28;20523;-79
2024/01/22 08:32:30;;;;;;;0.70;0.50;;;6.40;99.90;;;;;;5054651;28;20795;-79
2024/01/22 08:34:56;;;;;;;0.30;0.30;;;6.50;99.90;;;;;;5054584;28;20484;-78
2024/01/22 08:37:23;;;;;;;0.40;0.30;;;6.60;99.90;;;;;;5054558;28;20488;-79
2024/01/22 08:39:50;;;;;;;0.40;0.30;;;6.80;99.90;;;;;;5054948;28;20466;-79
2024/01/22 08:42:18;;;;;;;0.37;0.37;;;6.90;99.90;;;;;;5054543;28;20441;-78
2024/01/22 08:44:44;;;;;;;0.40;0.30;;;7.00;99.90;;;;;;5059871;28;20433;-79
2024/01/22 08:47:11;;;;;;;0.30;0.30;;;7.00;99.90;;;;;;5064677;28;20446;-78
2024/01/22 08:49:38;;;;;;;0.40;0.30;;;7.00;99.90;;;;;;5057853;28;20461;-78
2024/01/22 08:52:05;;;;;;;0.30;0.30;;;7.10;99.90;;;;;;5057622;28;20947;-78
2024/01/22 08:54:32;;;;;;;0.30;0.30;;;7.30;99.90;;;;;;5057960;28;20488;-78
2024/01/22 08:56:58;;;;;;;0.80;0.70;;;7.40;99.90;;;;;;5057838;28;20442;-79
2024/01/22 08:59:26;;;;;;;0.30;0.20;;;7.50;99.90;;;;;;5057573;28;20465;-78
2024/01/22 09:01:53;;;;;;;0.40;0.30;;;7.60;99.90;;;;;;5057872;28;20449;-78
2024/01/22 09:04:20;;;;;;;0.30;0.20;;;7.70;99.90;;;;;;5057635;28;20544;-78
2024/01/22 09:06:47;;;;;;;0.40;0.30;;;7.90;99.90;;;;;;5057951;28;20465;-78
2024/01/22 09:09:14;;;;;;;0.30;0.30;;;8.00;99.90;;;;;;5057303;28;20485;-78
2024/01/22 09:11:40;;;;;;;0.70;0.30;;;8.10;99.90;;;;;;5057632;28;20499;-78
2024/01/22 09:14:07;;;;;;;0.40;0.40;;;8.20;99.90;;;;;;5057062;28;21028;-78
2024/01/22 09:16:35;;;;;;;0.40;0.40;;;8.40;99.90;;;;;;5057409;28;20453;-78
2024/01/22 09:19:02;;;;;;;0.30;0.30;;;8.50;99.90;;;;;;5057259;28;20461;-78
2024/01/22 09:21:29;;;;;;;0.30;0.20;;;8.80;99.90;;;;;;5057486;28;20560;-78
2024/01/22 09:23:56;;;;;;;0.40;0.30;;;8.90;99.90;;;;;;5057809;28;20437;-78
2024/01/22 09:26:23;;;;;;;0.50;0.50;;;9.10;99.90;;;;;;5058052;28;20792;-78
2024/01/22 09:28:49;;;;;;;0.47;0.33;;;9.40;99.90;;;;;;5057650;28;20472;-78
2024/01/22 09:31:16;;;;;;;0.37;0.27;;;9.60;99.90;;;;;;5058199;28;20853;-78
2024/01/22 09:33:44;;;;;;;0.47;0.37;;;9.80;99.90;;;;;;5057941;28;20492;-78
2024/01/22 09:36:11;;;;;;;0.37;0.30;;;9.90;99.90;;;;;;5057238;28;20444;-78
2024/01/22 09:38:39;;;;;;;0.30;0.30;;;10.00;99.90;;;;;;5057114;28;20469;-78
2024/01/22 09:41:06;;;;;;;0.57;0.30;;;10.10;99.90;;;;;;5057087;28;20445;-78
2024/01/22 09:43:34;;;;;;;0.30;0.20;;;10.10;99.90;;;;;;5057420;28;20879;-78
2024/01/22 09:46:01;;;;;;;0.30;0.30;;;10.00;99.90;;;;;;5057489;28;20448;-78
2024/01/22 09:48:29;;;;;;;0.33;0.33;;;9.90;99.90;;;;;;5057426;28;20452;-78
2024/01/22 09:50:57;;;;;;;0.40;0.30;;;9.80;99.90;;;;;;5057373;28;20456;-78
2024/01/22 09:53:26;;;;;;;0.33;0.30;;;9.80;99.90;;;;;;5057900;28;20836;-79
2024/01/22 09:55:55;;;;;;;0.50;0.50;;;9.70;99.90;;;;;;5057862;28;20446;-79
2024/01/22 09:58:27;;;;;;;0.33;0.30;;;9.60;99.90;;;;;;5057968;28;20450;-79
2024/01/22 10:00:55;;;;;;;0.70;0.30;;;9.60;99.90;;;;;;5058311;28;20497;-79
2024/01/22 10:03:22;;;;;;;0.30;0.30;;;9.60;99.90;;;;;;5058428;28;20445;-79
2024/01/22 10:05:51;;;;;;;5.10;0.30;;;9.80;99.90;;;;;;5063739;28;20450;-79
2024/01/22 10:08:20;;;;;;;0.53;0.30;;;9.80;99.90;;;;;;5068939;28;20474;-79
2024/01/22 10:10:46;;;;;;;0.30;0.20;;;9.80;99.90;;;;;;5070386;28;20521;-79
2024/01/22 10:13:14;;;;;;;0.30;0.30;;;9.90;99.90;;;;;;5058589;28;20454;-79
2024/01/22 10:15:41;;;;;;;0.37;0.27;;;9.90;99.90;;;;;;5058756;28;20445;-79
2024/01/22 10:18:09;;;;;;;0.30;0.30;;;9.80;99.90;;;;;;5057905;28;21046;-79
2024/01/22 10:20:36;;;;;;;0.30;0.30;;;9.80;99.90;;;;;;5057246;28;20442;-78
2024/01/22 10:23:03;;;;;;;0.53;0.53;;;9.80;99.90;;;;;;5057586;28;20446;-79
2024/01/22 10:25:32;;;;;;;0.57;0.40;;;9.80;99.90;;;;;;5056974;28;20441;-79
2024/01/22 10:28:12;;;;;;;0.30;0.30;;;9.80;99.90;;;;;;5057238;28;20442;-78
2024/01/22 10:30:40;;;;;;;0.30;0.23;;;9.90;99.90;;;;;;5057068;28;20426;-79
2024/01/22 10:33:14;;;;;;;0.30;0.23;;;9.90;99.90;;;;;;5056815;28;20528;-79
2024/01/22 10:35:42;;;;;;;0.40;0.40;;;9.90;99.90;;;;;;5057012;28;20445;-78
2024/01/22 10:38:10;;;;;;;0.73;0.30;;;9.90;99.90;;;;;;5056611;28;20430;-78
2024/01/22 10:40:39;;;;;;;0.40;0.40;;;9.80;99.90;;;;;;5056184;28;20946;-79
2024/01/22 10:43:21;;;;;;;0.50;0.40;;;9.80;99.90;;;;;;5056362;28;20468;-79
2024/01/22 10:45:49;;;;;;;0.40;0.30;;;9.80;99.90;;;;;;5056556;28;20476;-79
2024/01/22 10:48:18;;;;;;;0.30;0.30;;;9.90;99.90;;;;;;5056990;28;20438;-79
2024/01/22 10:50:45;;;;;;;0.30;0.30;;;10.00;99.90;;;;;;5056517;28;20454;-79
2024/01/22 10:53:12;;;;;;;0.30;0.20;;;10.00;99.90;;;;;;5056652;28;20441;-79
2024/01/22 10:55:40;;;;;;;0.30;0.30;;;10.00;99.90;;;;;;5056724;28;20503;-79
2024/01/22 10:58:19;;;;;;;0.30;0.27;;;10.00;99.90;;;;;;5058460;28;20468;-79
2024/01/22 11:00:48;;;;;;;0.77;0.30;;;10.00;99.90;;;;;;5063965;28;20816;-79
2024/01/22 11:03:19;;;;;;;1.43;0.70;;;10.00;99.90;;;;;;5055877;28;20450;-79
2024/01/22 11:05:47;;;;;;;0.40;0.40;;;10.10;99.90;;;;;;5055513;28;20520;-79
2024/01/22 11:08:16;;;;;;;0.70;0.30;;;10.20;99.90;;;;;;5055370;28;20501;-79
2024/01/22 11:10:45;;;;;;;0.40;0.37;;;10.30;99.90;;;;;;5055655;28;20450;-79
2024/01/22 11:13:13;;;;;;;0.40;0.30;;;10.40;99.90;;;;;;5055689;28;20509;-79
2024/01/22 11:15:41;;;;;;;0.70;0.40;;;10.30;99.90;;;;;;5056071;28;20477;-79
2024/01/22 11:18:10;;;;;;;0.50;0.30;;;10.10;99.90;;;;;;5055524;28;20935;-79
2024/01/22 11:20:37;;;;;;;0.50;0.30;;;9.90;99.90;;;;;;5055617;28;20429;-79
2024/01/22 11:23:08;;;;;;;0.40;0.30;;;9.80;99.90;;;;;;5055380;28;20472;-79
2024/01/22 11:25:35;;;;;;;1.07;0.30;;;9.70;99.90;;;;;;5055455;28;20449;-79
2024/01/22 11:28:05;;;;;;;0.30;0.30;;;9.70;99.90;;;;;;5055250;28;20457;-79
2024/01/22 11:30:36;;;;;;;0.30;0.30;;;9.70;99.90;;;;;;5055230;28;20469;-79
2024/01/22 11:33:23;;;;;;;1.90;0.30;;;9.70;99.90;;;;;;5055249;28;20505;-78
2024/01/22 11:35:50;;;;;;;0.40;0.30;;;9.60;99.90;;;;;;5054827;28;20485;-78
2024/01/22 11:38:50;;;;;;;0.50;0.40;;;9.50;99.90;;;;;;5054691;28;20468;-78
2024/01/22 11:41:29;;;;;;;0.33;0.27;;;9.50;99.90;;;;;;5055122;28;20446;-79
2024/01/22 11:43:57;;;;;;;0.63;0.40;;;9.50;99.90;;;;;;5055137;28;20480;-78
2024/01/22 11:46:24;;;;;;;0.30;0.30;;;9.50;99.90;;;;;;5054525;28;20962;-78
2024/01/22 11:48:53;;;;;;;0.30;0.30;;;9.50;99.90;;;;;;5054833;28;20470;-78
2024/01/22 11:51:24;;;;;;;0.30;0.30;;;9.60;99.90;;;;;;5055457;28;20446;-78
2024/01/22 11:53:52;;;;;;;0.30;0.30;;;9.60;99.90;;;;;;5055588;28;20445;-79
2024/01/22 11:56:20;;;;;;;0.33;0.30;;;9.60;99.90;;;;;;5055699;28;20434;-79
2024/01/22 11:58:47;;;;;;;0.30;0.30;;;9.60;99.90;;;;;;5054777;28;20519;-78
2024/01/22 12:01:18;;;;;;;0.30;0.30;;;9.70;99.90;;;;;;5055435;28;20496;-79
2024/01/22 12:03:45;;;;;;;0.50;0.30;;;9.70;99.90;;;;;;5055771;28;20789;-79
2024/01/22 12:06:12;;;;;;;0.30;0.23;;;9.80;99.90;;;;;;5056001;28;20458;-79
2024/01/22 12:08:39;;;;;;;0.40;0.30;;;9.80;99.90;;;;;;5055121;28;20481;-79
2024/01/22 12:11:09;;;;;;;0.60;0.40;;;9.90;99.90;;;;;;5055167;28;20980;-79
2024/01/22 12:13:37;;;;;;;0.40;0.30;;;9.90;99.90;;;;;;5055613;28;20460;-79
2024/01/22 12:16:04;;;;;;;1.80;0.30;;;9.90;99.90;;;;;;5055341;28;20818;-79
2024/01/22 12:18:32;;;;;;;0.83;0.33;;;9.90;99.90;;;;;;5055205;28;20469;-79
2024/01/22 12:20:59;;;;;;;0.50;0.30;;;9.90;99.90;;;;;;5054358;28;20441;-78
2024/01/22 12:23:30;;;;;;;0.40;0.30;;;9.90;99.90;;;;;;5055151;28;20457;-79
2024/01/22 12:25:57;;;;;;;0.30;0.30;;;9.90;99.90;;;;;;5054949;28;20434;-79
2024/01/22 12:28:25;;;;;;;0.30;0.30;;;9.80;99.90;;;;;;5054621;28;20441;-79
2024/01/22 12:31:00;;;;;;;0.30;0.30;;;9.90;99.90;;;;;;5054787;28;20450;-79
2024/01/22 12:33:27;;;;;;;0.30;0.30;;;9.80;99.90;;;;;;5054578;28;20430;-79
2024/01/22 12:36:09;;;;;;;0.40;0.30;;;9.80;99.90;;;;;;5054644;28;20539;-78
2024/01/22 12:38:38;;;;;;;0.30;0.30;;;9.90;99.90;;;;;;5054350;28;20797;-79
2024/01/22 12:41:08;;;;;;;0.53;0.33;;;9.90;99.90;;;;;;5054100;28;20943;-79
2024/01/22 12:43:36;;;;;;;0.30;0.30;;;9.90;99.90;;;;;;5054412;28;20430;-79
2024/01/22 12:46:08;;;;;;;0.30;0.30;;;9.90;99.90;;;;;;5054430;28;20813;-79
2024/01/22 12:48:34;;;;;;;0.30;0.30;;;10.00;99.90;;;;;;5054317;28;20823;-79
2024/01/22 12:51:01;;;;;;;0.30;0.30;;;10.00;99.90;;;;;;5054433;28;20445;-79
2024/01/22 12:53:29;;;;;;;0.30;0.20;;;10.00;99.90;;;;;;5055302;28;20449;-79
2024/01/22 12:55:56;;;;;;;0.30;0.20;;;10.00;99.90;;;;;;5062683;28;20983;-79
2024/01/22 12:58:25;;;;;;;0.30;0.30;;;10.00;99.90;;;;;;5064109;28;20442;-79